This is the latest recevied weather packets stored in our database for station/object EA4IAJ-12. If no packets are shown the sender has not sent any weather packets the latest 10 day(s).
| Time | Temp. | Humidity | Pressure | Rain* | Wind** | Luminosity | Snow |
|---|---|---|---|---|---|---|---|
| 1777324516 | 17.78° C | 24% | 1000.1 hPa | - | - | - | - |
| 1777323615 | 17.22° C | 24% | 997.4 hPa | - | - | - | - |
| 1777322714 | 17.78° C | 23% | 998.8 hPa | - | - | - | - |
| 1777320913 | 18.33° C | 22% | 1000.3 hPa | - | - | - | - |
| 1777320013 | 18.89° C | 22% | 1001.3 hPa | - | - | - | - |
| 1777319112 | 18.89° C | 22% | 1002.8 hPa | - | - | - | - |
| 1777318212 | 20° C | 21% | 1005.4 hPa | - | - | - | - |
| 1777317311 | 20.56° C | 21% | 1007.3 hPa | - | - | - | - |
| 1777316411 | 21.67° C | 21% | 1010.7 hPa | - | - | - | - |
| 1777315510 | 22.78° C | 21% | 1014.2 hPa | - | - | - | - |
| 1777314609 | 23.89° C | 21% | 1018.2 hPa | - | - | - | - |
| 1777313709 | 24.44° C | 21% | 1021.3 hPa | - | - | - | - |
| 1777312809 | 26.11° C | 21% | 1027.4 hPa | - | - | - | - |
| 1777311908 | 26.67° C | 21% | 1028.4 hPa | - | - | - | - |
| 1777311007 | 30° C | 22% | 1040.7 hPa | - | - | - | - |
| 1777310107 | 27.78° C | 22% | 1032.9 hPa | - | - | - | - |
| 1777309207 | 28.33° C | 22% | 1035 hPa | - | - | - | - |
| 1777308306 | 33.33° C | 23% | 1053.5 hPa | - | - | - | - |
| 1777307405 | 31.11° C | 23% | 1046.1 hPa | - | - | - | - |
| 1777306505 | 32.22° C | 23% | 1051.1 hPa | - | - | - | - |
| 1777305604 | 32.22° C | 24% | 1050.9 hPa | - | - | - | - |
| 1777304716 | 33.33° C | 24% | 1054.6 hPa | - | - | - | - |
| 1777303815 | 33.89° C | 25% | 1057.8 hPa | - | - | - | - |
| 1777302915 | 31.11° C | 25% | 1048.5 hPa | - | - | - | - |
| 1777302014 | 31.67° C | 26% | 1049.5 hPa | - | - | - | - |
* Rain since midnight (hover to see other rain measurements)
** Current wind speed in m/s (hover to see current wind gust speed)